Kerrville, Texas
Current Conditions -  °F | °C
As of 1:55 AM on Saturday 20 Dec 2014 (Local Time) from KERV Reporting Station
Overcast Overcast  
Wind Chill: 44°   Ceiling: 1200
Heat Index: 47°   Visibility: 10mi
Dew Point: 43°   Wind: 6mph
Humidity: 88%   Direction: 340°NNW
Pressure: 30.18"   Gusts: NA
Location:  30.05°N, 99.14°W
Report Text: KERV 200755Z AUTO 34005KT 10SM OVC012 08/06 A3018 RMK AO2 T00810062
Loading
Personal Weather Stations






























Interactive Weather Map New forecast layout! Learn more

10-Day Weather Forecast

Advertisements
Track Severe Weather on mobile